Time;durP1;ratioP1;P1;durP2;ratioP2;P2;SDS_P1;SDS_P2;PMS_P1;PMS_P2;Temp;Humidity;BMP_temperature;BMP_pressure;BME280_temperature;BME280_humidity;BME280_pressure;Samples;Min_cycle;Max_cycle;Signal;HPM_P1;HPM_P2
2022/01/15 00:00:44;;;;;;;5.88;5.28;;;;;;;;;;5017099;28;20226;-83
2022/01/15 00:03:15;;;;;;;4.65;4.22;;;;;;;;;;5016508;28;20206;-83
2022/01/15 00:05:42;;;;;;;3.92;3.63;;;;;;;;;;5016961;28;20222;-82
2022/01/15 00:08:09;;;;;;;3.90;3.60;;;;;;;;;;5016953;28;20195;-83
2022/01/15 00:10:37;;;;;;;4.75;4.43;;;;;;;;;;5016523;28;20713;-83
2022/01/15 00:13:10;;;;;;;6.50;5.88;;;;;;;;;;5016801;28;20678;-83
2022/01/15 00:15:46;;;;;;;5.93;5.38;;;;;;;;;;5016662;28;20706;-83
2022/01/15 00:18:15;;;;;;;5.57;4.88;;;;;;;;;;5016558;28;20202;-83
2022/01/15 00:20:43;;;;;;;7.88;7.07;;;;;;;;;;5016949;28;20203;-83
2022/01/15 00:23:11;;;;;;;6.32;5.18;;;;;;;;;;5016838;28;20683;-83
2022/01/15 00:25:38;;;;;;;4.65;4.20;;;;;;;;;;5016617;28;20215;-83
2022/01/15 00:28:06;;;;;;;4.78;4.38;;;;;;;;;;5016390;28;20214;-83
2022/01/15 00:30:33;;;;;;;8.23;7.30;;;;;;;;;;5016085;28;20226;-82
2022/01/15 00:33:02;;;;;;;11.90;10.70;;;;;;;;;;5016263;28;20211;-83
2022/01/15 00:35:30;;;;;;;12.20;9.00;;;;;;;;;;5016713;28;20223;-83
2022/01/15 00:37:57;;;;;;;9.80;7.65;;;;;;;;;;5016265;28;20205;-83
2022/01/15 00:40:24;;;;;;;8.10;7.00;;;;;;;;;;5016584;28;20671;-82
2022/01/15 00:42:52;;;;;;;6.05;5.38;;;;;;;;;;5016340;28;20252;-82
2022/01/15 00:45:22;;;;;;;5.82;5.25;;;;;;;;;;5016326;28;20223;-83
2022/01/15 00:47:49;;;;;;;5.55;4.88;;;;;;;;;;5016329;28;20203;-83
2022/01/15 00:50:19;;;;;;;6.15;5.47;;;;;;;;;;5016321;28;20228;-83
2022/01/15 00:52:48;;;;;;;5.55;5.05;;;;;;;;;;5015658;28;20218;-83
2022/01/15 00:55:16;;;;;;;6.20;5.70;;;;;;;;;;5016293;28;20277;-83
2022/01/15 00:57:44;;;;;;;6.97;6.40;;;;;;;;;;5015940;28;20227;-83
2022/01/15 01:00:17;;;;;;;10.25;8.10;;;;;;;;;;5015649;28;20667;-83
2022/01/15 01:02:44;;;;;;;8.02;7.25;;;;;;;;;;5015511;28;20195;-83
2022/01/15 01:05:12;;;;;;;5.78;5.13;;;;;;;;;;5015825;28;20227;-83
2022/01/15 01:07:41;;;;;;;7.80;6.60;;;;;;;;;;5016025;28;20218;-83
2022/01/15 01:10:30;;;;;;;9.38;8.38;;;;;;;;;;5016013;28;20206;-83
2022/01/15 01:13:14;;;;;;;7.05;6.25;;;;;;;;;;5015739;28;20235;-83
2022/01/15 01:21:46;;;;;;;6.90;6.30;;;;;;;;;;4982138;28;20597;-83
2022/01/15 01:24:11;;;;;;;5.22;4.72;;;;;;;;;;5015771;28;20286;-83
2022/01/15 01:26:45;;;;;;;6.00;5.35;;;;;;;;;;5015089;28;20717;-83
2022/01/15 01:29:23;;;;;;;6.82;6.15;;;;;;;;;;5015783;28;20261;-82
2022/01/15 01:32:00;;;;;;;5.63;4.80;;;;;;;;;;5014840;28;20326;-83
2022/01/15 01:34:29;;;;;;;5.85;5.28;;;;;;;;;;5015530;28;20203;-82
2022/01/15 01:37:03;;;;;;;7.50;6.32;;;;;;;;;;5015042;28;20234;-83
2022/01/15 01:39:39;;;;;;;7.43;6.20;;;;;;;;;;5014924;28;20187;-83
2022/01/15 01:42:14;;;;;;;10.00;8.73;;;;;;;;;;5015037;28;20198;-83
2022/01/15 01:45:00;;;;;;;13.02;10.18;;;;;;;;;;5015293;28;20289;-83
2022/01/15 01:47:39;;;;;;;6.93;5.82;;;;;;;;;;5015107;28;20203;-83
2022/01/15 01:50:10;;;;;;;8.20;7.07;;;;;;;;;;5015146;28;20249;-83
2022/01/15 01:52:39;;;;;;;13.40;10.57;;;;;;;;;;5014755;28;20219;-83
2022/01/15 01:55:09;;;;;;;11.20;8.85;;;;;;;;;;5015026;28;20227;-82
2022/01/15 01:57:37;;;;;;;7.40;6.13;;;;;;;;;;5014534;28;20671;-83
2022/01/15 02:00:08;;;;;;;6.35;5.75;;;;;;;;;;5014551;28;20203;-83
2022/01/15 02:02:36;;;;;;;10.52;8.77;;;;;;;;;;5014826;28;20208;-83
2022/01/15 02:05:05;;;;;;;12.25;10.15;;;;;;;;;;5014603;28;20317;-83
2022/01/15 02:07:32;;;;;;;7.57;6.32;;;;;;;;;;5014705;28;20210;-83
2022/01/15 02:10:00;;;;;;;15.25;11.63;;;;;;;;;;5014673;28;20203;-83
2022/01/15 02:12:28;;;;;;;10.20;8.82;;;;;;;;;;5014296;28;20317;-83
2022/01/15 02:14:56;;;;;;;8.43;7.53;;;;;;;;;;5014413;28;20233;-83
2022/01/15 02:17:23;;;;;;;8.18;6.57;;;;;;;;;;5014723;28;20213;-83
2022/01/15 02:20:10;;;;;;;6.60;6.00;;;;;;;;;;5014521;28;20209;-83
2022/01/15 02:25:22;;;;;;;10.93;9.27;;;;;;;;;;5014872;28;20226;-83
2022/01/15 02:27:50;;;;;;;8.18;6.63;;;;;;;;;;5015315;28;20214;-83
2022/01/15 02:30:17;;;;;;;7.68;6.85;;;;;;;;;;5014630;28;20206;-82
2022/01/15 02:32:44;;;;;;;6.53;5.93;;;;;;;;;;5013983;28;20273;-83
2022/01/15 02:35:14;;;;;;;6.47;5.88;;;;;;;;;;5014903;28;20289;-83
2022/01/15 02:37:42;;;;;;;6.05;5.45;;;;;;;;;;5014522;28;20241;-83
2022/01/15 02:40:12;;;;;;;5.35;4.85;;;;;;;;;;5014597;28;20195;-83
2022/01/15 02:42:39;;;;;;;5.95;5.20;;;;;;;;;;5014381;28;20230;-83
2022/01/15 02:45:08;;;;;;;8.88;7.90;;;;;;;;;;5015013;28;20707;-83
2022/01/15 02:50:23;;;;;;;7.47;6.10;;;;;;;;;;5015146;28;20267;-83
2022/01/15 02:52:51;;;;;;;9.90;8.90;;;;;;;;;;5016332;28;20273;-83
2022/01/15 02:55:18;;;;;;;6.30;5.70;;;;;;;;;;5018319;28;20219;-83
2022/01/15 02:57:45;;;;;;;10.02;8.45;;;;;;;;;;5018160;28;20199;-83
2022/01/15 03:00:14;;;;;;;7.00;6.05;;;;;;;;;;5018844;28;20203;-83
2022/01/15 03:02:41;;;;;;;6.78;5.82;;;;;;;;;;5017951;28;20210;-83
2022/01/15 03:05:10;;;;;;;7.88;6.65;;;;;;;;;;5018181;28;20222;-83
2022/01/15 03:07:38;;;;;;;8.80;7.82;;;;;;;;;;5018422;28;20613;-83
2022/01/15 03:10:08;;;;;;;6.90;5.75;;;;;;;;;;5017993;28;20198;-83
2022/01/15 03:12:36;;;;;;;8.50;6.50;;;;;;;;;;5017856;28;20234;-83
2022/01/15 03:15:05;;;;;;;7.55;6.85;;;;;;;;;;5017940;28;20242;-83
2022/01/15 03:17:32;;;;;;;5.53;4.97;;;;;;;;;;5018081;28;20628;-83
2022/01/15 03:20:00;;;;;;;5.22;4.72;;;;;;;;;;5018216;28;20207;-82
2022/01/15 03:22:27;;;;;;;5.28;4.78;;;;;;;;;;5017830;28;20663;-83
2022/01/15 03:24:56;;;;;;;4.43;4.03;;;;;;;;;;5018097;28;20269;-83
2022/01/15 03:27:24;;;;;;;8.50;7.60;;;;;;;;;;5017360;28;20198;-83
2022/01/15 03:29:52;;;;;;;6.18;5.57;;;;;;;;;;5017678;28;20195;-83
2022/01/15 03:32:19;;;;;;;6.28;5.55;;;;;;;;;;5017090;28;20223;-83
2022/01/15 03:34:47;;;;;;;5.90;5.30;;;;;;;;;;5017402;28;20209;-83
2022/01/15 03:37:15;;;;;;;5.30;4.80;;;;;;;;;;5017759;28;20682;-83
2022/01/15 03:39:42;;;;;;;5.50;4.90;;;;;;;;;;5017359;28;20214;-83
2022/01/15 03:42:12;;;;;;;8.85;7.95;;;;;;;;;;5017546;28;20202;-83
2022/01/15 03:44:41;;;;;;;6.07;5.47;;;;;;;;;;5017523;28;20203;-83
2022/01/15 03:47:09;;;;;;;6.90;6.28;;;;;;;;;;5017710;28;20195;-83
2022/01/15 03:49:37;;;;;;;8.75;7.38;;;;;;;;;;5018067;28;20202;-83
2022/01/15 03:52:05;;;;;;;9.70;8.60;;;;;;;;;;5017166;28;20219;-83
2022/01/15 03:54:33;;;;;;;11.10;8.88;;;;;;;;;;5016741;28;20199;-83
2022/01/15 03:57:00;;;;;;;8.05;6.75;;;;;;;;;;5017510;28;20207;-83
2022/01/15 03:59:29;;;;;;;8.10;6.45;;;;;;;;;;5017539;28;20206;-83
2022/01/15 04:01:57;;;;;;;6.63;5.85;;;;;;;;;;5017669;28;20206;-83
2022/01/15 04:04:24;;;;;;;6.00;5.40;;;;;;;;;;5017811;28;20211;-83
2022/01/15 04:06:51;;;;;;;7.35;6.65;;;;;;;;;;5017387;28;20258;-83
2022/01/15 04:09:19;;;;;;;10.93;8.18;;;;;;;;;;5017522;28;20663;-83
2022/01/15 04:11:47;;;;;;;7.53;6.28;;;;;;;;;;5017014;28;20584;-82
2022/01/15 04:14:14;;;;;;;4.60;4.07;;;;;;;;;;5016821;28;20227;-83
2022/01/15 04:16:43;;;;;;;8.82;7.28;;;;;;;;;;5016685;28;20231;-83
2022/01/15 04:19:10;;;;;;;5.97;4.82;;;;;;;;;;5016765;28;20199;-84
2022/01/15 04:21:38;;;;;;;7.32;6.35;;;;;;;;;;5017215;28;20663;-84
2022/01/15 04:24:06;;;;;;;12.40;9.65;;;;;;;;;;5017292;28;20203;-83
2022/01/15 04:26:34;;;;;;;9.88;8.85;;;;;;;;;;5016758;28;20262;-83
2022/01/15 04:29:03;;;;;;;8.73;7.15;;;;;;;;;;5016780;28;20207;-84
2022/01/15 04:31:38;;;;;;;6.78;6.15;;;;;;;;;;5017041;28;20203;-84
2022/01/15 04:34:07;;;;;;;6.78;5.75;;;;;;;;;;5017227;28;20227;-83
2022/01/15 04:36:34;;;;;;;9.68;7.53;;;;;;;;;;5016691;28;20222;-82
2022/01/15 04:39:01;;;;;;;7.07;5.10;;;;;;;;;;5016379;28;20199;-83
2022/01/15 04:41:28;;;;;;;6.15;5.53;;;;;;;;;;5016804;28;20338;-83
2022/01/15 04:43:55;;;;;;;5.22;4.72;;;;;;;;;;5016056;28;20199;-83
2022/01/15 04:46:23;;;;;;;6.05;5.40;;;;;;;;;;5015504;28;20233;-83
2022/01/15 04:48:50;;;;;;;6.47;5.60;;;;;;;;;;5016142;28;20207;-83
2022/01/15 04:51:19;;;;;;;7.95;7.13;;;;;;;;;;5015696;28;20254;-83
2022/01/15 04:53:46;;;;;;;7.93;7.07;;;;;;;;;;5015097;28;20230;-83
2022/01/15 04:56:13;;;;;;;5.70;5.13;;;;;;;;;;5015824;28;20227;-82
2022/01/15 04:58:40;;;;;;;10.38;9.23;;;;;;;;;;5016053;28;20206;-83
2022/01/15 05:01:08;;;;;;;9.77;8.13;;;;;;;;;;5016072;28;20203;-83
2022/01/15 05:03:35;;;;;;;7.18;5.75;;;;;;;;;;5015806;28;20203;-83
2022/01/15 05:06:03;;;;;;;8.68;7.88;;;;;;;;;;5015784;28;20226;-83
2022/01/15 05:08:31;;;;;;;9.38;7.85;;;;;;;;;;5015559;28;20206;-83
2022/01/15 05:11:09;;;;;;;6.47;5.88;;;;;;;;;;5015970;28;20253;-82
2022/01/15 05:13:37;;;;;;;6.15;5.55;;;;;;;;;;5015912;28;20207;-83
2022/01/15 05:16:05;;;;;;;6.40;5.57;;;;;;;;;;5014548;28;20219;-83
2022/01/15 05:18:32;;;;;;;5.95;5.45;;;;;;;;;;5015011;28;20402;-83
2022/01/15 05:21:00;;;;;;;9.00;7.28;;;;;;;;;;5015524;28;20209;-83
2022/01/15 05:23:27;;;;;;;11.25;8.65;;;;;;;;;;5014621;28;20199;-83
2022/01/15 05:25:56;;;;;;;7.28;6.55;;;;;;;;;;5015056;28;20223;-83
2022/01/15 05:28:23;;;;;;;10.50;8.90;;;;;;;;;;5015204;28;20674;-83
2022/01/15 05:30:51;;;;;;;9.30;7.55;;;;;;;;;;5015114;28;20203;-83
2022/01/15 05:33:18;;;;;;;8.18;6.53;;;;;;;;;;5014618;28;20273;-83
2022/01/15 05:35:45;;;;;;;7.97;7.18;;;;;;;;;;5015447;28;20225;-83
2022/01/15 05:38:13;;;;;;;6.70;5.45;;;;;;;;;;5015684;28;20211;-83
2022/01/15 05:40:40;;;;;;;5.43;4.85;;;;;;;;;;5015276;28;20203;-83
2022/01/15 05:43:09;;;;;;;8.85;7.72;;;;;;;;;;5015212;28;20576;-83
2022/01/15 05:45:36;;;;;;;16.58;11.30;;;;;;;;;;5015255;28;20230;-83
2022/01/15 05:48:03;;;;;;;11.75;8.50;;;;;;;;;;5014756;28;20211;-87
2022/01/15 05:50:30;;;;;;;10.07;7.60;;;;;;;;;;5014915;28;20207;-86
2022/01/15 05:52:58;;;;;;;8.20;6.93;;;;;;;;;;5014390;28;20202;-86
2022/01/15 05:55:26;;;;;;;11.18;8.43;;;;;;;;;;5014878;28;20227;-86
2022/01/15 05:57:53;;;;;;;12.05;8.63;;;;;;;;;;5014669;28;20231;-86
2022/01/15 06:00:22;;;;;;;10.73;6.95;;;;;;;;;;5014741;28;20199;-86
2022/01/15 06:02:49;;;;;;;9.20;7.82;;;;;;;;;;5014245;28;20203;-86
2022/01/15 06:05:16;;;;;;;6.90;5.53;;;;;;;;;;5014302;28;20223;-86
2022/01/15 06:07:44;;;;;;;5.40;4.88;;;;;;;;;;5014390;28;20207;-85
2022/01/15 06:10:12;;;;;;;6.60;5.32;;;;;;;;;;5014907;28;20612;-87
2022/01/15 06:12:43;;;;;;;4.82;4.43;;;;;;;;;;5014613;28;20214;-85
2022/01/15 06:15:12;;;;;;;5.05;4.55;;;;;;;;;;5014295;28;20338;-86
2022/01/15 06:17:44;;;;;;;5.85;5.15;;;;;;;;;;5014755;28;20574;-87
2022/01/15 06:20:14;;;;;;;4.45;4.03;;;;;;;;;;5014658;28;20562;-86
2022/01/15 06:22:41;;;;;;;6.07;4.90;;;;;;;;;;5014430;28;20262;-86
2022/01/15 06:25:10;;;;;;;4.43;3.83;;;;;;;;;;5014309;28;20225;-85
2022/01/15 06:27:38;;;;;;;6.00;5.40;;;;;;;;;;5016521;28;20207;-86
2022/01/15 06:30:07;;;;;;;5.75;5.15;;;;;;;;;;5018866;28;20199;-87
2022/01/15 06:32:36;;;;;;;5.47;4.70;;;;;;;;;;5018289;28;20241;-86
2022/01/15 06:35:07;;;;;;;4.28;3.88;;;;;;;;;;5018204;28;20223;-86
2022/01/15 06:37:34;;;;;;;7.85;6.80;;;;;;;;;;5018263;28;20202;-87
2022/01/15 06:40:04;;;;;;;7.10;6.03;;;;;;;;;;5017994;28;20209;-87
2022/01/15 06:42:40;;;;;;;7.25;6.45;;;;;;;;;;5017651;28;20698;-86
2022/01/15 06:45:11;;;;;;;9.60;8.60;;;;;;;;;;5018268;28;20218;-86
2022/01/15 06:47:44;;;;;;;10.45;8.70;;;;;;;;;;5018483;28;20223;-85
2022/01/15 06:50:23;;;;;;;10.98;8.70;;;;;;;;;;5018483;28;20294;-85
2022/01/15 06:52:51;;;;;;;8.02;6.10;;;;;;;;;;5021946;28;20253;-85
2022/01/15 06:55:21;;;;;;;8.32;6.78;;;;;;;;;;5019059;28;20239;-85
2022/01/15 06:57:52;;;;;;;7.10;6.38;;;;;;;;;;5018209;28;20215;-85
2022/01/15 07:00:20;;;;;;;10.63;8.93;;;;;;;;;;5017980;28;20191;-86
2022/01/15 07:02:51;;;;;;;10.18;7.65;;;;;;;;;;5018196;28;20261;-85
2022/01/15 07:05:22;;;;;;;7.55;5.72;;;;;;;;;;5018481;28;20218;-86
2022/01/15 07:07:54;;;;;;;5.85;5.25;;;;;;;;;;5017674;28;20225;-85
2022/01/15 07:10:23;;;;;;;7.05;5.88;;;;;;;;;;5017777;28;20233;-85
2022/01/15 07:13:13;;;;;;;6.55;5.95;;;;;;;;;;5017736;28;20227;-85
2022/01/15 07:16:28;;;;;;;6.47;5.47;;;;;;;;;;5023046;28;20258;-85
2022/01/15 07:18:59;;;;;;;9.43;8.15;;;;;;;;;;5017463;28;20215;-85
2022/01/15 07:21:33;;;;;;;8.52;7.63;;;;;;;;;;5020109;28;20223;-86
2022/01/15 07:24:00;;;;;;;6.82;6.13;;;;;;;;;;5019548;28;20265;-85
2022/01/15 07:26:48;;;;;;;5.03;4.53;;;;;;;;;;5019622;28;20227;-86
2022/01/15 07:29:30;;;;;;;7.20;5.90;;;;;;;;;;5020126;28;20206;-87
2022/01/15 07:32:15;;;;;;;9.10;7.40;;;;;;;;;;5019742;28;20195;-87
2022/01/15 07:34:43;;;;;;;10.63;8.40;;;;;;;;;;5018347;28;20792;-87
2022/01/15 07:37:13;;;;;;;9.02;6.82;;;;;;;;;;5019089;28;20206;-87
2022/01/15 07:39:44;;;;;;;8.00;7.20;;;;;;;;;;5018710;28;20245;-86
2022/01/15 07:42:21;;;;;;;6.53;5.82;;;;;;;;;;5018810;28;20202;-87
2022/01/15 07:44:50;;;;;;;5.95;4.93;;;;;;;;;;5018885;28;20219;-86
2022/01/15 07:47:20;;;;;;;5.93;5.43;;;;;;;;;;5019160;28;20249;-87
2022/01/15 07:49:51;;;;;;;7.15;6.47;;;;;;;;;;5019508;28;20617;-86
2022/01/15 07:52:52;;;;;;;6.72;5.70;;;;;;;;;;5019077;28;20233;-87
2022/01/15 07:55:51;;;;;;;6.35;5.07;;;;;;;;;;5018431;28;20231;-87
2022/01/15 07:58:26;;;;;;;8.13;6.85;;;;;;;;;;5018542;28;20303;-87
2022/01/15 08:01:22;;;;;;;7.30;6.15;;;;;;;;;;5018058;28;20701;-88
2022/01/15 08:04:38;;;;;;;6.65;5.45;;;;;;;;;;5018804;28;20210;-85
2022/01/15 08:07:28;;;;;;;7.90;6.53;;;;;;;;;;5018476;28;20274;-86
2022/01/15 08:10:03;;;;;;;8.85;6.78;;;;;;;;;;5017964;28;20702;-88
2022/01/15 08:12:31;;;;;;;9.98;7.38;;;;;;;;;;5017556;28;20213;-85
2022/01/15 08:14:58;;;;;;;8.30;6.75;;;;;;;;;;5018323;28;20691;-86
2022/01/15 08:17:26;;;;;;;7.78;6.00;;;;;;;;;;5018860;28;20249;-86
2022/01/15 08:19:53;;;;;;;7.20;5.57;;;;;;;;;;5018983;28;20218;-87
2022/01/15 08:22:21;;;;;;;5.82;5.07;;;;;;;;;;5018705;28;20600;-85
2022/01/15 08:24:50;;;;;;;5.25;4.20;;;;;;;;;;5018414;28;20246;-86
2022/01/15 08:27:18;;;;;;;4.32;3.92;;;;;;;;;;5018304;28;20682;-86
2022/01/15 08:29:46;;;;;;;3.75;3.28;;;;;;;;;;5018016;28;20214;-86
2022/01/15 08:32:13;;;;;;;3.13;2.88;;;;;;;;;;5017840;28;20890;-86
2022/01/15 08:34:43;;;;;;;2.97;2.67;;;;;;;;;;5017901;28;20244;-86
2022/01/15 08:37:10;;;;;;;2.28;2.08;;;;;;;;;;5020204;28;20203;-87
2022/01/15 08:39:37;;;;;;;1.88;1.77;;;;;;;;;;5018652;28;20198;-85
2022/01/15 08:42:07;;;;;;;2.10;2.00;;;;;;;;;;5018543;28;20238;-85
2022/01/15 08:44:40;;;;;;;1.50;1.40;;;;;;;;;;5018236;28;20234;-84
2022/01/15 08:47:07;;;;;;;1.90;1.60;;;;;;;;;;5017365;28;20628;-85
2022/01/15 08:49:35;;;;;;;1.40;1.30;;;;;;;;;;5017877;28;20234;-86
2022/01/15 08:52:02;;;;;;;1.65;1.55;;;;;;;;;;5018502;28;20265;-87
2022/01/15 08:54:29;;;;;;;1.30;1.30;;;;;;;;;;5019389;28;20195;-85
2022/01/15 08:56:57;;;;;;;1.60;1.48;;;;;;;;;;5018389;28;20223;-85
2022/01/15 08:59:26;;;;;;;1.98;1.77;;;;;;;;;;5016827;28;20579;-83
2022/01/15 09:01:56;;;;;;;1.85;1.75;;;;;;;;;;5017113;28;20238;-85
2022/01/15 09:04:23;;;;;;;2.10;1.95;;;;;;;;;;5016834;28;20203;-84
2022/01/15 09:06:51;;;;;;;1.70;1.60;;;;;;;;;;5017483;28;20222;-84
2022/01/15 09:09:19;;;;;;;2.10;2.00;;;;;;;;;;5016827;28;20203;-84
2022/01/15 09:11:47;;;;;;;2.47;2.30;;;;;;;;;;5016592;28;20630;-83
2022/01/15 09:14:14;;;;;;;1.83;1.73;;;;;;;;;;5016939;28;20249;-84
2022/01/15 09:16:41;;;;;;;1.88;1.77;;;;;;;;;;5016672;28;20230;-85
2022/01/15 09:19:11;;;;;;;1.40;1.33;;;;;;;;;;5016020;28;20207;-84
2022/01/15 09:21:38;;;;;;;1.65;1.55;;;;;;;;;;5016963;28;20195;-86
2022/01/15 09:24:06;;;;;;;1.55;1.45;;;;;;;;;;5016367;28;20314;-85
2022/01/15 09:26:48;;;;;;;1.65;1.55;;;;;;;;;;5016029;28;20588;-86
2022/01/15 09:32:11;;;;;;;1.65;1.55;;;;;;;;;;4969957;28;20203;-85
2022/01/15 09:34:40;;;;;;;1.75;1.65;;;;;;;;;;5017081;28;20199;-85
2022/01/15 09:37:08;;;;;;;1.42;1.33;;;;;;;;;;5016814;28;20223;-85
2022/01/15 09:39:35;;;;;;;1.60;1.50;;;;;;;;;;5016420;28;20667;-86
2022/01/15 09:42:03;;;;;;;1.60;1.50;;;;;;;;;;5016134;28;20249;-84
2022/01/15 09:44:32;;;;;;;1.70;1.60;;;;;;;;;;5017162;28;20211;-85
2022/01/15 09:46:59;;;;;;;1.73;1.63;;;;;;;;;;5017486;28;20261;-84
2022/01/15 09:49:26;;;;;;;3.58;2.28;;;;;;;;;;5016208;28;20791;-84
2022/01/15 09:51:57;;;;;;;2.17;1.98;;;;;;;;;;5016940;28;20206;-85
2022/01/15 09:54:24;;;;;;;1.45;1.35;;;;;;;;;;5016145;28;20245;-85
2022/01/15 09:56:51;;;;;;;1.55;1.45;;;;;;;;;;5016087;28;20227;-84
2022/01/15 09:59:20;;;;;;;1.40;1.30;;;;;;;;;;5015427;28;20195;-85
2022/01/15 10:01:48;;;;;;;1.73;1.63;;;;;;;;;;5014320;28;20218;-85
2022/01/15 10:04:15;;;;;;;1.80;1.70;;;;;;;;;;5014968;28;20206;-85
2022/01/15 10:07:10;;;;;;;1.77;1.67;;;;;;;;;;5015004;28;20604;-84
2022/01/15 10:09:39;;;;;;;1.40;1.30;;;;;;;;;;5015618;28;20226;-84
2022/01/15 10:12:07;;;;;;;1.45;1.38;;;;;;;;;;5014668;28;20214;-85
2022/01/15 10:14:37;;;;;;;1.17;1.15;;;;;;;;;;5015100;28;20199;-85
2022/01/15 10:17:24;;;;;;;1.20;1.20;;;;;;;;;;5013600;28;20333;-84
2022/01/15 10:19:53;;;;;;;1.52;1.42;;;;;;;;;;5014626;28;20761;-83
2022/01/15 10:22:24;;;;;;;1.63;1.58;;;;;;;;;;5015411;28;20191;-85
2022/01/15 10:24:56;;;;;;;1.50;1.40;;;;;;;;;;5015106;28;20258;-84
2022/01/15 10:27:31;;;;;;;1.75;1.65;;;;;;;;;;5015227;28;20203;-84
2022/01/15 10:30:03;;;;;;;1.50;1.40;;;;;;;;;;5014823;28;20280;-85
2022/01/15 10:32:33;;;;;;;1.30;1.20;;;;;;;;;;5014859;28;20269;-85
2022/01/15 10:35:01;;;;;;;1.60;1.50;;;;;;;;;;5015441;28;20588;-84
2022/01/15 10:37:36;;;;;;;1.45;1.35;;;;;;;;;;5014312;28;20222;-84
2022/01/15 10:40:08;;;;;;;1.50;1.40;;;;;;;;;;5014655;28;20312;-84
2022/01/15 10:42:36;;;;;;;1.70;1.60;;;;;;;;;;5014961;28;20215;-85
2022/01/15 10:45:10;;;;;;;1.83;1.73;;;;;;;;;;5015082;28;20222;-84
2022/01/15 10:47:44;;;;;;;1.42;1.35;;;;;;;;;;5015103;28;20207;-85
2022/01/15 10:50:21;;;;;;;1.95;1.85;;;;;;;;;;5014797;28;20207;-85
2022/01/15 10:52:50;;;;;;;1.42;1.33;;;;;;;;;;5014510;28;20210;-83
2022/01/15 10:55:18;;;;;;;1.55;1.45;;;;;;;;;;5014483;28;20227;-84
2022/01/15 10:57:53;;;;;;;1.90;1.80;;;;;;;;;;5014232;28;20706;-84
2022/01/15 11:00:23;;;;;;;1.50;1.40;;;;;;;;;;5015763;28;20230;-88
2022/01/15 11:02:52;;;;;;;2.60;2.40;;;;;;;;;;5015542;28;20207;-85
2022/01/15 11:05:33;;;;;;;2.50;2.30;;;;;;;;;;5015172;28;20219;-85
2022/01/15 11:08:15;;;;;;;2.20;2.10;;;;;;;;;;5015974;28;20249;-84
2022/01/15 11:10:51;;;;;;;2.50;2.30;;;;;;;;;;5014832;28;20210;-83
2022/01/15 11:13:22;;;;;;;2.20;2.00;;;;;;;;;;5016843;28;20301;-83
2022/01/15 11:15:54;;;;;;;2.10;1.90;;;;;;;;;;5018757;28;20226;-83
2022/01/15 11:18:24;;;;;;;2.45;2.25;;;;;;;;;;5017697;28;20231;-85
2022/01/15 11:20:54;;;;;;;2.70;2.50;;;;;;;;;;5017868;28;20277;-83
2022/01/15 11:23:27;;;;;;;1.83;1.73;;;;;;;;;;5017278;28;20261;-83
2022/01/15 11:25:58;;;;;;;2.53;2.30;;;;;;;;;;5017968;28;20241;-86
2022/01/15 11:28:27;;;;;;;2.20;2.10;;;;;;;;;;5017104;28;20257;-85
2022/01/15 11:30:57;;;;;;;2.88;2.03;;;;;;;;;;5018913;28;20206;-86
2022/01/15 11:33:29;;;;;;;2.05;1.95;;;;;;;;;;5018157;28;20211;-86
2022/01/15 11:35:57;;;;;;;2.30;2.20;;;;;;;;;;5018842;28;20223;-85
2022/01/15 11:38:44;;;;;;;1.73;1.63;;;;;;;;;;5017842;28;20652;-85
2022/01/15 11:41:38;;;;;;;2.45;2.10;;;;;;;;;;5018070;28;20289;-85
2022/01/15 11:44:07;;;;;;;3.38;3.10;;;;;;;;;;5018396;28;20209;-86
2022/01/15 11:46:42;;;;;;;2.20;2.00;;;;;;;;;;5018758;28;20223;-86
2022/01/15 11:49:37;;;;;;;2.42;2.28;;;;;;;;;;5018666;28;20201;-84
2022/01/15 11:52:44;;;;;;;2.08;1.98;;;;;;;;;;5018386;28;20281;-84
2022/01/15 11:55:21;;;;;;;3.53;3.20;;;;;;;;;;5012389;28;20223;-86
2022/01/15 11:57:55;;;;;;;2.65;2.45;;;;;;;;;;5017587;28;20246;-84
2022/01/15 12:00:27;;;;;;;2.63;2.30;;;;;;;;;;5018489;28;20199;-86
2022/01/15 12:03:13;;;;;;;2.90;2.70;;;;;;;;;;5017588;28;20222;-84
2022/01/15 12:05:46;;;;;;;2.08;1.90;;;;;;;;;;5017929;28;20223;-86
2022/01/15 12:08:36;;;;;;;3.05;2.85;;;;;;;;;;5019501;28;20289;-86
2022/01/15 12:11:08;;;;;;;2.28;2.08;;;;;;;;;;5019024;28;20210;-85
2022/01/15 12:13:51;;;;;;;2.65;2.45;;;;;;;;;;5017760;28;20693;-85
2022/01/15 12:16:36;;;;;;;2.28;2.17;;;;;;;;;;5018728;28;20313;-85
2022/01/15 12:19:04;;;;;;;2.70;2.50;;;;;;;;;;5011533;28;20690;-85
2022/01/15 12:21:55;;;;;;;2.67;2.42;;;;;;;;;;5017755;28;20210;-85
2022/01/15 12:24:53;;;;;;;2.10;2.00;;;;;;;;;;5017591;28;20644;-84
2022/01/15 12:27:29;;;;;;;3.42;3.13;;;;;;;;;;4994648;28;20624;-83
2022/01/15 12:30:11;;;;;;;2.63;2.42;;;;;;;;;;5052005;23;20713;-85
2022/01/15 12:32:41;;;;;;;2.97;2.78;;;;;;;;;;5042195;28;20202;-86
2022/01/15 12:35:15;;;;;;;3.50;3.20;;;;;;;;;;5041958;28;20202;-87
2022/01/15 12:37:57;;;;;;;2.72;2.53;;;;;;;;;;5041801;28;20229;-86
2022/01/15 12:40:31;;;;;;;3.78;2.83;;;;;;;;;;5041646;28;20223;-86
2022/01/15 12:43:02;;;;;;;2.80;2.60;;;;;;;;;;5042796;28;20206;-87
2022/01/15 12:45:30;;;;;;;2.92;2.72;;;;;;;;;;5045955;28;20206;-86
2022/01/15 12:47:59;;;;;;;2.55;2.35;;;;;;;;;;5057739;28;20501;-86
2022/01/15 12:50:27;;;;;;;3.25;2.95;;;;;;;;;;5064925;28;20209;-87
2022/01/15 12:53:08;;;;;;;3.90;3.60;;;;;;;;;;5066694;28;20193;-86
2022/01/15 12:55:37;;;;;;;3.55;3.25;;;;;;;;;;5067417;28;20233;-87
2022/01/15 12:58:08;;;;;;;3.25;2.95;;;;;;;;;;5067484;28;20232;-87
2022/01/15 13:00:38;;;;;;;3.50;3.20;;;;;;;;;;5067341;28;20229;-87
2022/01/15 13:03:21;;;;;;;3.90;3.45;;;;;;;;;;5068624;28;20197;-87
2022/01/15 13:05:56;;;;;;;3.42;3.13;;;;;;;;;;5068142;28;20284;-87
2022/01/15 13:08:42;;;;;;;3.53;3.22;;;;;;;;;;5065086;28;20198;-87
2022/01/15 13:11:28;;;;;;;3.63;3.33;;;;;;;;;;5061297;28;20225;-86
2022/01/15 13:14:05;;;;;;;3.90;3.60;;;;;;;;;;5059836;28;20255;-87
2022/01/15 13:16:50;;;;;;;3.47;3.17;;;;;;;;;;5059873;28;20650;-85
2022/01/15 13:19:18;;;;;;;3.05;2.85;;;;;;;;;;5045396;28;20671;-85
2022/01/15 13:21:46;;;;;;;3.38;3.15;;;;;;;;;;5047172;28;20550;-87
2022/01/15 13:24:16;;;;;;;2.20;2.10;;;;;;;;;;5048414;28;20217;-87
2022/01/15 13:26:50;;;;;;;2.95;2.75;;;;;;;;;;5050160;28;20829;-87
2022/01/15 13:29:25;;;;;;;3.08;2.85;;;;;;;;;;5047581;28;20226;-87
2022/01/15 13:31:54;;;;;;;3.28;3.03;;;;;;;;;;5048896;28;20622;-87
2022/01/15 13:34:29;;;;;;;3.97;3.58;;;;;;;;;;5047422;28;20297;-87
2022/01/15 13:37:06;;;;;;;5.30;4.80;;;;;;;;;;5043225;28;20215;-87
2022/01/15 13:39:36;;;;;;;2.80;2.60;;;;;;;;;;5045766;28;20229;-87
2022/01/15 13:42:05;;;;;;;3.25;2.95;;;;;;;;;;5044512;28;20548;-87
2022/01/15 13:44:35;;;;;;;3.15;2.90;;;;;;;;;;5046577;28;20210;-88
2022/01/15 13:47:08;;;;;;;3.75;3.45;;;;;;;;;;5046674;28;20206;-87
2022/01/15 13:53:05;;;;;;;3.65;3.40;;;;;;;;;;5046558;28;20220;-88
2022/01/15 13:55:16;;;;;;;3.80;3.50;;;;;;;;;;5045206;28;20241;-87
2022/01/15 13:57:44;;;;;;;3.85;3.55;;;;;;;;;;5046517;28;20263;-87
2022/01/15 14:00:16;;;;;;;4.13;3.72;;;;;;;;;;5045422;28;20603;-87
2022/01/15 14:02:45;;;;;;;3.10;2.80;;;;;;;;;;5046876;28;20210;-88
2022/01/15 14:05:14;;;;;;;3.78;3.47;;;;;;;;;;5045605;28;20198;-87
2022/01/15 14:07:44;;;;;;;4.85;4.43;;;;;;;;;;5044636;28;20759;-87
2022/01/15 14:10:30;;;;;;;4.25;3.85;;;;;;;;;;5043799;28;20226;-87
2022/01/15 14:13:08;;;;;;;3.38;3.05;;;;;;;;;;5041549;28;20206;-87
2022/01/15 14:15:39;;;;;;;3.53;3.20;;;;;;;;;;5046335;28;20222;-88
2022/01/15 14:18:14;;;;;;;3.83;3.53;;;;;;;;;;5060079;28;20664;-87
2022/01/15 14:21:05;;;;;;;3.63;3.33;;;;;;;;;;5064131;28;20248;-86
2022/01/15 14:23:37;;;;;;;3.00;2.80;;;;;;;;;;5067817;28;20261;-86
2022/01/15 14:26:18;;;;;;;4.18;3.88;;;;;;;;;;5066648;28;20210;-87
2022/01/15 14:28:46;;;;;;;4.45;4.05;;;;;;;;;;5063265;28;20208;-87
2022/01/15 14:31:15;;;;;;;5.00;3.90;;;;;;;;;;5060214;28;20229;-87
2022/01/15 14:33:47;;;;;;;4.30;3.95;;;;;;;;;;5058846;28;20623;-86
2022/01/15 14:36:15;;;;;;;3.97;3.67;;;;;;;;;;5059679;28;20194;-87
2022/01/15 14:38:42;;;;;;;3.78;3.47;;;;;;;;;;5062066;28;20229;-87
2022/01/15 14:41:10;;;;;;;4.63;3.95;;;;;;;;;;5062625;28;20229;-86
2022/01/15 14:43:40;;;;;;;5.07;4.50;;;;;;;;;;5062671;28;20224;-87
2022/01/15 14:46:10;;;;;;;4.18;3.88;;;;;;;;;;5063619;28;20209;-86
2022/01/15 14:48:40;;;;;;;5.13;4.72;;;;;;;;;;5045244;28;20805;-87
2022/01/15 14:51:16;;;;;;;5.60;4.72;;;;;;;;;;5045104;28;20226;-86
2022/01/15 14:53:44;;;;;;;4.40;4.00;;;;;;;;;;5044975;28;20631;-86
2022/01/15 14:56:12;;;;;;;4.25;3.95;;;;;;;;;;5045437;28;20209;-87
2022/01/15 14:58:40;;;;;;;3.60;3.30;;;;;;;;;;5046113;28;20229;-86
2022/01/15 15:01:09;;;;;;;3.50;3.25;;;;;;;;;;5045967;28;20282;-87
2022/01/15 15:03:38;;;;;;;3.47;3.10;;;;;;;;;;5047775;28;20214;-86
2022/01/15 15:06:06;;;;;;;4.20;3.88;;;;;;;;;;5048780;28;20199;-86
2022/01/15 15:08:34;;;;;;;3.75;3.45;;;;;;;;;;5050400;28;20848;-87
2022/01/15 15:11:02;;;;;;;3.45;3.15;;;;;;;;;;5050046;28;20649;-85
2022/01/15 15:13:31;;;;;;;3.55;3.25;;;;;;;;;;5047282;28;20199;-87
2022/01/15 15:15:58;;;;;;;3.50;3.20;;;;;;;;;;5048893;28;20205;-86
2022/01/15 15:18:37;;;;;;;4.13;3.75;;;;;;;;;;5049447;28;20213;-87
2022/01/15 15:21:09;;;;;;;3.20;3.00;;;;;;;;;;5042906;28;20272;-87
2022/01/15 15:23:43;;;;;;;3.90;3.60;;;;;;;;;;5046514;28;20226;-86